createdAt,value
2022-08-30T00:04:08.257Z,16.00
2022-08-30T00:09:10.484Z,16.00
2022-08-30T00:14:12.460Z,15.90
2022-08-30T00:19:14.397Z,15.80
2022-08-30T00:24:16.374Z,15.80
2022-08-30T00:29:18.330Z,15.80
2022-08-30T00:34:20.230Z,15.80
2022-08-30T00:39:22.055Z,16.00
2022-08-30T00:44:24.222Z,16.00
2022-08-30T00:49:26.368Z,15.90
2022-08-30T00:54:30.105Z,15.80
2022-08-30T00:59:32.438Z,15.90
2022-08-30T01:04:35.645Z,15.80
2022-08-30T01:09:37.518Z,15.80
2022-08-30T01:14:39.650Z,15.70
2022-08-30T01:19:51.779Z,15.60
2022-08-30T01:24:57.683Z,15.60
2022-08-30T01:29:59.844Z,15.70
2022-08-30T01:35:01.855Z,15.70
2022-08-30T01:40:05.246Z,15.60
2022-08-30T01:45:07.945Z,15.50
2022-08-30T01:50:10.764Z,15.50
2022-08-30T01:55:12.594Z,15.50
2022-08-30T02:00:14.854Z,15.60
2022-08-30T02:05:16.774Z,15.60
2022-08-30T02:10:18.619Z,15.70
2022-08-30T02:15:20.595Z,15.70
2022-08-30T02:20:22.487Z,15.60
2022-08-30T02:25:24.283Z,15.50
2022-08-30T02:30:27.196Z,15.60
2022-08-30T02:35:29.075Z,15.60
2022-08-30T02:40:31.089Z,15.60
2022-08-30T02:45:33.373Z,15.50
2022-08-30T02:50:38.935Z,15.40
2022-08-30T02:55:40.874Z,15.40
2022-08-30T03:00:42.873Z,15.40
2022-08-30T03:05:44.720Z,15.40
2022-08-30T03:10:46.560Z,15.40
2022-08-30T03:15:50.396Z,15.40
2022-08-30T03:20:53.938Z,15.50
2022-08-30T03:25:57.392Z,15.40
2022-08-30T03:30:59.170Z,15.30
2022-08-30T03:36:01.040Z,15.40
2022-08-30T03:41:04.395Z,15.30
2022-08-30T03:46:07.773Z,15.40
2022-08-30T03:51:09.907Z,15.30
2022-08-30T03:56:11.851Z,15.30
2022-08-30T04:01:13.767Z,15.30
2022-08-30T04:06:15.699Z,15.20
2022-08-30T04:11:17.492Z,15.20
2022-08-30T04:16:20.094Z,15.20
2022-08-30T04:21:22.111Z,15.20
2022-08-30T04:26:24.083Z,15.10
2022-08-30T04:31:31.445Z,15.10
2022-08-30T04:36:33.432Z,15.00
2022-08-30T04:41:37.757Z,14.90
2022-08-30T04:46:44.617Z,14.90
2022-08-30T04:51:46.649Z,14.80
2022-08-30T04:56:48.466Z,14.80
2022-08-30T05:01:50.310Z,14.90
2022-08-30T05:06:52.907Z,14.90
2022-08-30T05:11:55.002Z,15.00
2022-08-30T05:16:56.828Z,15.00
2022-08-30T05:21:58.622Z,15.00
2022-08-30T05:27:00.458Z,14.90
2022-08-30T05:32:02.463Z,15.10
2022-08-30T05:37:04.418Z,15.20
2022-08-30T05:42:06.355Z,15.30
2022-08-30T05:47:08.131Z,15.50
2022-08-30T05:52:10.371Z,15.60
2022-08-30T05:57:12.461Z,15.80
2022-08-30T06:02:14.602Z,16.00
2022-08-30T06:07:18.009Z,16.20
2022-08-30T06:12:23.103Z,16.40
2022-08-30T06:17:24.891Z,16.70
2022-08-30T06:22:26.748Z,16.90
2022-08-30T06:27:28.531Z,17.20
2022-08-30T06:32:30.324Z,17.50
2022-08-30T06:37:33.094Z,17.80
2022-08-30T06:42:34.935Z,18.10
2022-08-30T06:47:36.740Z,18.40
2022-08-30T06:52:40.764Z,18.60
2022-08-30T06:57:43.083Z,18.90
2022-08-30T07:02:45.001Z,19.20
2022-08-30T07:07:46.862Z,19.40
2022-08-30T07:12:48.985Z,19.70
2022-08-30T07:18:09.458Z,20.00
2022-08-30T07:23:11.908Z,20.40
2022-08-30T07:28:14.779Z,20.60
2022-08-30T07:33:16.720Z,20.80
2022-08-30T07:38:18.803Z,21.10
2022-08-30T07:43:20.927Z,21.20
2022-08-30T07:48:22.844Z,21.50
2022-08-30T07:53:25.067Z,21.70
2022-08-30T07:58:26.946Z,22.00
2022-08-30T08:03:29.847Z,22.20
2022-08-30T08:08:32.818Z,22.50
2022-08-30T08:13:36.578Z,22.80
2022-08-30T08:18:54.063Z,23.00
2022-08-30T08:23:56.053Z,23.40
2022-08-30T08:28:57.839Z,23.50
2022-08-30T08:39:05.155Z,23.70
2022-08-30T08:44:15.713Z,23.70
2022-08-30T08:49:17.742Z,23.80
2022-08-30T08:54:19.498Z,24.00
2022-08-30T08:59:21.395Z,24.10
2022-08-30T09:04:30.761Z,24.20
2022-08-30T09:09:37.122Z,24.50
2022-08-30T09:14:46.026Z,24.40
2022-08-30T09:19:54.450Z,24.60
2022-08-30T09:25:23.861Z,24.50
2022-08-30T09:30:28.778Z,24.60
2022-08-30T09:35:41.663Z,24.80
2022-08-30T09:40:52.603Z,24.70
2022-08-30T09:46:00.472Z,25.00
2022-08-30T09:51:11.902Z,25.00
2022-08-30T09:56:52.362Z,25.20
2022-08-30T10:02:23.607Z,25.40
2022-08-30T10:08:04.933Z,25.40
2022-08-30T10:13:26.503Z,25.50
2022-08-30T10:18:43.238Z,25.10
2022-08-30T10:24:02.838Z,25.20
2022-08-30T10:29:19.370Z,24.90
2022-08-30T10:34:43.747Z,24.60
2022-08-30T10:39:48.901Z,24.80
2022-08-30T10:45:02.628Z,25.00
2022-08-30T10:50:14.230Z,25.20
2022-08-30T10:55:24.339Z,25.30
2022-08-30T11:00:49.850Z,25.50
2022-08-30T11:06:03.629Z,25.40
2022-08-30T11:11:30.083Z,25.60
2022-08-30T11:16:48.481Z,25.40
2022-08-30T11:21:51.551Z,25.00
2022-08-30T11:27:00.308Z,24.60
2022-08-30T11:32:14.522Z,24.80
2022-08-30T11:37:37.401Z,25.10
2022-08-30T11:42:42.725Z,25.60
2022-08-30T11:48:04.488Z,25.80
2022-08-30T11:53:36.038Z,26.10
2022-08-30T11:59:01.889Z,25.80
2022-08-30T12:04:25.779Z,25.60
2022-08-30T12:09:28.174Z,25.70
2022-08-30T12:14:51.668Z,25.90
2022-08-30T12:19:53.814Z,26.00
2022-08-30T12:24:56.059Z,26.30
2022-08-30T12:30:05.989Z,26.40
2022-08-30T12:35:08.044Z,26.50
2022-08-30T12:40:19.055Z,26.70
2022-08-30T12:45:25.560Z,27.00
2022-08-30T12:50:31.790Z,26.80
2022-08-30T12:55:49.688Z,26.60
2022-08-30T13:00:51.478Z,26.50
2022-08-30T13:05:54.508Z,26.10
2022-08-30T13:11:08.504Z,25.90
2022-08-30T13:16:21.189Z,25.70
2022-08-30T13:21:25.515Z,25.50
2022-08-30T13:26:28.291Z,25.10
2022-08-30T13:31:30.689Z,24.90
2022-08-30T13:36:35.803Z,24.60
2022-08-30T13:41:39.339Z,24.50
2022-08-30T13:46:51.071Z,24.40
2022-08-30T13:52:19.082Z,24.40
2022-08-30T13:57:53.516Z,24.50
2022-08-30T14:02:45.282Z,24.60
2022-08-30T14:07:49.544Z,24.70
2022-08-30T14:12:53.170Z,24.80
2022-08-30T14:17:55.288Z,24.90
2022-08-30T14:22:57.143Z,24.90
2022-08-30T14:27:59.035Z,24.90
2022-08-30T14:33:00.827Z,24.80
2022-08-30T14:38:02.702Z,24.60
2022-08-30T14:43:04.635Z,24.40
2022-08-30T14:48:11.769Z,24.20
2022-08-30T14:53:16.867Z,24.10
2022-08-30T14:58:19.204Z,24.00
2022-08-30T15:03:21.036Z,23.90
2022-08-30T15:08:23.022Z,23.90
2022-08-30T15:13:26.404Z,23.90
2022-08-30T15:18:28.364Z,24.00
2022-08-30T15:23:30.322Z,24.00
2022-08-30T15:28:32.163Z,24.00
2022-08-30T15:33:33.984Z,24.00
2022-08-30T15:38:36.047Z,23.90
2022-08-30T15:43:40.642Z,23.80
2022-08-30T15:48:45.650Z,23.70
2022-08-30T15:53:48.588Z,23.60
2022-08-30T15:58:52.991Z,23.50
2022-08-30T16:03:55.018Z,23.40
2022-08-30T16:08:59.259Z,23.30
2022-08-30T16:14:01.075Z,23.20
2022-08-30T16:19:03.747Z,23.20
2022-08-30T16:24:07.352Z,23.10
2022-08-30T16:29:13.879Z,23.00
2022-08-30T16:34:17.722Z,23.00
2022-08-30T16:39:19.547Z,22.90
2022-08-30T16:44:22.262Z,22.90
2022-08-30T16:49:31.775Z,22.80
2022-08-30T16:54:33.688Z,22.80
2022-08-30T16:59:37.151Z,22.70
2022-08-30T17:04:39.963Z,22.70
2022-08-30T17:09:41.728Z,22.60
2022-08-30T17:14:43.664Z,22.50
2022-08-30T17:19:45.710Z,22.50
2022-08-30T17:24:47.575Z,22.40
2022-08-30T17:29:51.324Z,22.30
2022-08-30T17:34:53.501Z,22.30
2022-08-30T17:39:56.028Z,22.20
2022-08-30T17:45:01.247Z,22.10
2022-08-30T17:50:06.361Z,22.00
2022-08-30T17:55:10.552Z,21.90
2022-08-30T18:00:15.671Z,21.80
2022-08-30T18:05:17.814Z,21.70
2022-08-30T18:10:28.581Z,21.60
2022-08-30T18:15:36.168Z,21.50
2022-08-30T18:20:40.238Z,21.40
2022-08-30T18:25:42.273Z,21.30
2022-08-30T18:30:45.358Z,21.30
2022-08-30T18:35:49.015Z,21.20
2022-08-30T18:40:52.883Z,21.10
2022-08-30T18:45:54.956Z,21.00
2022-08-30T18:50:57.039Z,21.10
2022-08-30T18:55:59.458Z,21.00
2022-08-30T19:01:01.499Z,20.90
2022-08-30T19:06:07.966Z,20.90
2022-08-30T19:11:12.079Z,20.90
2022-08-30T19:16:13.918Z,21.00
2022-08-30T19:21:15.755Z,20.90
2022-08-30T19:26:19.201Z,20.90
2022-08-30T19:31:21.009Z,21.00
2022-08-30T19:36:22.852Z,21.00
2022-08-30T19:41:24.951Z,21.00
2022-08-30T19:46:26.759Z,21.00
2022-08-30T19:51:28.639Z,21.00
2022-08-30T19:56:30.699Z,20.90
2022-08-30T20:01:33.964Z,20.90
2022-08-30T20:06:36.195Z,20.90
2022-08-30T20:11:39.260Z,20.80
2022-08-30T20:16:42.276Z,20.80
2022-08-30T20:21:47.930Z,20.80
2022-08-30T20:26:51.962Z,20.80
2022-08-30T20:31:53.750Z,20.80
2022-08-30T20:36:57.588Z,20.80
2022-08-30T20:41:59.475Z,20.70
2022-08-30T20:47:01.299Z,20.60
2022-08-30T20:52:04.840Z,20.60
2022-08-30T20:57:07.105Z,20.50
2022-08-30T21:02:09.085Z,20.50
2022-08-30T21:07:12.709Z,20.50
2022-08-30T21:12:14.686Z,20.50
2022-08-30T21:17:17.879Z,20.50
2022-08-30T21:22:19.717Z,20.60
2022-08-30T21:27:22.386Z,20.60
2022-08-30T21:32:24.393Z,20.60
2022-08-30T21:37:26.603Z,20.70
2022-08-30T21:42:28.432Z,20.60
2022-08-30T21:47:31.175Z,20.60
2022-08-30T21:52:33.799Z,20.60
2022-08-30T21:57:35.652Z,20.60
2022-08-30T22:02:37.504Z,20.50
2022-08-30T22:07:39.787Z,20.60
2022-08-30T22:12:41.716Z,20.50
2022-08-30T22:17:43.887Z,20.50
2022-08-30T22:22:45.718Z,20.50
2022-08-30T22:27:47.542Z,20.50
2022-08-30T22:32:49.459Z,20.50
2022-08-30T22:37:53.778Z,20.40
2022-08-30T22:42:55.678Z,20.40
2022-08-30T22:47:58.010Z,20.40
2022-08-30T22:52:59.813Z,20.30
2022-08-30T22:58:01.623Z,20.30
2022-08-30T23:03:04.397Z,20.40
2022-08-30T23:08:07.156Z,20.30
2022-08-30T23:13:08.947Z,20.30
2022-08-30T23:18:10.759Z,20.30
2022-08-30T23:23:31.480Z,20.30
2022-08-30T23:28:51.769Z,20.30
2022-08-30T23:34:12.123Z,20.20
2022-08-30T23:39:32.587Z,20.20
2022-08-30T23:44:52.955Z,20.10
2022-08-30T23:50:13.841Z,20.10
2022-08-30T23:55:34.284Z,20.10
